Time;durP1;ratioP1;P1;durP2;ratioP2;P2;SDS_P1;SDS_P2;PMS_P1;PMS_P2;Temp;Humidity;BMP_temperature;BMP_pressure;BME280_temperature;BME280_humidity;BME280_pressure;Samples;Min_cycle;Max_cycle;Signal;HPM_P1;HPM_P2
2022/04/30 00:02:09;;;;;;;8.88;6.20;;;8.00;80.10;;;;;;5111059;28;20042;-58
2022/04/30 00:04:35;;;;;;;;;;;8.00;80.80;;;;;;5111707;28;20077;-55
2022/04/30 00:07:01;;;;;;;7.72;5.68;;;7.90;80.80;;;;;;5111160;28;19957;-46
2022/04/30 00:09:26;;;;;;;8.75;5.72;;;7.90;81.30;;;;;;5111040;28;20051;-58
2022/04/30 00:11:53;;;;;;;8.57;6.05;;;7.90;81.60;;;;;;5112126;28;20412;-57
2022/04/30 00:14:18;;;;;;;12.18;6.30;;;7.80;82.10;;;;;;5115359;28;20024;-51
2022/04/30 00:16:44;;;;;;;10.63;6.10;;;7.70;82.60;;;;;;5115274;28;20028;-47
2022/04/30 00:19:10;;;;;;;8.88;5.97;;;7.60;82.80;;;;;;5114949;28;20612;-52
2022/04/30 00:21:36;;;;;;;9.65;6.47;;;7.60;83.00;;;;;;5115224;28;20113;-56
2022/04/30 00:24:02;;;;;;;12.75;6.20;;;7.60;83.30;;;;;;5115112;28;20064;-58
2022/04/30 00:26:28;;;;;;;9.45;6.28;;;7.50;83.70;;;;;;5115036;28;20039;-57
2022/04/30 00:28:54;;;;;;;8.55;6.07;;;7.50;83.50;;;;;;5096402;28;20065;-59
2022/04/30 00:31:19;;;;;;;9.73;6.05;;;7.40;83.80;;;;;;5114955;28;20016;-52
2022/04/30 00:33:48;;;;;;;10.60;6.88;;;7.40;84.00;;;;;;5115213;28;20141;-56
2022/04/30 00:36:14;;;;;;;8.60;6.45;;;7.30;84.30;;;;;;5114762;28;20027;-56
2022/04/30 00:38:41;;;;;;;9.85;6.10;;;7.30;84.50;;;;;;5114435;28;20027;-47
2022/04/30 00:41:08;;;;;;;9.38;5.85;;;7.30;84.80;;;;;;5114604;28;20027;-54
2022/04/30 00:43:48;;;;;;;11.65;6.50;;;7.20;84.80;;;;;;5114685;28;20023;-50
2022/04/30 00:46:15;;;;;;;10.35;6.47;;;7.20;84.80;;;;;;5114506;28;20031;-49
2022/04/30 00:48:41;;;;;;;10.10;6.55;;;7.20;84.60;;;;;;5114468;28;20106;-48
2022/04/30 00:51:12;;;;;;;11.23;6.32;;;7.10;84.80;;;;;;5114276;28;20379;-54
2022/04/30 00:53:49;;;;;;;10.10;6.57;;;7.10;85.20;;;;;;5114356;28;20032;-58
2022/04/30 00:56:21;;;;;;;12.35;6.10;;;7.10;85.10;;;;;;5114165;28;20077;-50
2022/04/30 00:58:48;;;;;;;11.40;6.82;;;7.10;85.10;;;;;;5114200;28;20570;-57
2022/04/30 01:01:19;;;;;;;9.27;6.28;;;7.10;85.50;;;;;;5114216;28;20039;-59
2022/04/30 01:03:44;;;;;;;10.52;6.57;;;7.00;85.50;;;;;;5114277;28;20027;-53
2022/04/30 01:06:12;;;;;;;9.13;5.68;;;7.00;85.70;;;;;;5114064;28;20023;-50
2022/04/30 01:08:38;;;;;;;9.80;6.60;;;7.00;85.80;;;;;;5114149;28;20401;-53
2022/04/30 01:11:04;;;;;;;10.13;6.32;;;6.90;86.30;;;;;;5113896;28;20040;-59
2022/04/30 01:13:35;;;;;;;12.43;6.75;;;6.90;86.20;;;;;;5113947;28;20023;-53
2022/04/30 01:16:06;;;;;;;8.98;6.50;;;6.90;86.60;;;;;;5113694;28;20043;-58
2022/04/30 01:18:36;;;;;;;12.70;7.15;;;6.90;86.90;;;;;;5113951;28;20524;-56
2022/04/30 01:21:10;;;;;;;9.98;6.35;;;6.90;86.80;;;;;;5113737;28;20032;-58
2022/04/30 01:23:36;;;;;;;10.70;6.63;;;6.90;87.20;;;;;;5113443;28;20027;-60
2022/04/30 01:26:03;;;;;;;12.98;6.20;;;7.00;87.00;;;;;;5113406;28;20042;-51
2022/04/30 01:28:29;;;;;;;11.30;6.72;;;7.00;86.90;;;;;;5113853;28;20470;-54
2022/04/30 01:30:55;;;;;;;12.38;6.05;;;7.00;87.00;;;;;;5113639;28;20147;-60
2022/04/30 01:38:31;;;;;;;9.93;6.07;;;7.00;87.20;;;;;;5113640;28;20123;-60
2022/04/30 01:40:57;;;;;;;10.45;5.95;;;6.90;87.60;;;;;;5113155;28;20537;-58
2022/04/30 01:43:24;;;;;;;12.60;6.63;;;6.90;87.40;;;;;;5113395;28;20114;-54
2022/04/30 01:45:50;;;;;;;11.15;6.35;;;6.80;87.80;;;;;;5113020;28;20415;-48
2022/04/30 01:48:16;;;;;;;12.35;6.90;;;6.80;87.70;;;;;;5113685;28;20027;-57
2022/04/30 01:50:42;;;;;;;10.05;6.53;;;6.80;87.80;;;;;;5113206;28;20035;-55
2022/04/30 01:53:09;;;;;;;9.95;6.45;;;6.70;88.50;;;;;;5113383;28;20048;-61
2022/04/30 01:55:35;;;;;;;10.00;6.10;;;6.70;88.90;;;;;;5112923;28;20039;-61
2022/04/30 01:58:01;;;;;;;9.73;6.35;;;6.60;89.20;;;;;;5113235;28;20106;-59
2022/04/30 02:00:27;;;;;;;12.88;6.40;;;6.60;89.10;;;;;;5112625;28;20538;-59
2022/04/30 02:02:55;;;;;;;11.25;6.85;;;6.60;89.30;;;;;;5113118;28;20027;-49
2022/04/30 02:05:22;;;;;;;10.88;6.45;;;6.60;89.80;;;;;;5112918;28;20453;-56
2022/04/30 02:08:05;;;;;;;9.45;6.43;;;6.50;89.50;;;;;;5112917;28;20047;-58
2022/04/30 02:10:33;;;;;;;11.85;6.85;;;6.60;89.70;;;;;;5112685;28;20042;-53
2022/04/30 02:12:59;;;;;;;14.50;6.97;;;6.60;89.00;;;;;;5112779;28;20034;-57
2022/04/30 02:15:26;;;;;;;12.00;6.47;;;6.70;88.60;;;;;;5112626;28;20027;-46
2022/04/30 02:17:52;;;;;;;10.52;6.55;;;6.70;88.60;;;;;;5112712;28;20031;-54
2022/04/30 02:20:22;;;;;;;13.95;7.03;;;6.80;88.50;;;;;;5112639;28;20035;-45
2022/04/30 02:22:49;;;;;;;;;;;6.90;87.70;;;;;;5113956;28;20031;-45
2022/04/30 02:25:16;;;;;;;11.93;6.38;;;6.90;87.70;;;;;;5112472;28;20003;-53
2022/04/30 02:27:44;;;;;;;11.88;6.20;;;7.00;86.80;;;;;;5112688;28;20038;-48
2022/04/30 02:30:29;;;;;;;10.93;6.38;;;7.00;86.90;;;;;;5112713;28;20069;-47
2022/04/30 02:32:57;;;;;;;12.02;5.60;;;7.10;86.90;;;;;;5112599;28;20486;-42
2022/04/30 02:35:28;;;;;;;9.25;6.45;;;7.10;86.10;;;;;;5111237;28;20020;-49
2022/04/30 02:37:57;;;;;;;11.75;6.38;;;7.20;86.20;;;;;;5094113;28;20049;-53
2022/04/30 02:40:24;;;;;;;11.65;5.93;;;7.30;86.50;;;;;;5112009;28;20477;-50
2022/04/30 02:42:51;;;;;;;9.48;5.80;;;7.30;86.50;;;;;;5092096;28;20061;-53
2022/04/30 02:45:17;;;;;;;11.05;6.07;;;7.30;85.80;;;;;;5091806;28;20474;-50
2022/04/30 02:47:46;;;;;;;13.95;5.75;;;7.40;85.80;;;;;;5091893;28;20099;-54
2022/04/30 02:50:14;;;;;;;9.17;5.33;;;7.40;84.70;;;;;;5093129;28;20379;-58
2022/04/30 02:52:43;;;;;;;8.15;5.43;;;7.50;85.30;;;;;;5111948;28;20795;-49
2022/04/30 02:55:10;;;;;;;;;;;7.50;85.80;;;;;;5112396;28;20386;-59
2022/04/30 03:00:39;;;;;;;7.88;5.18;;;7.60;85.50;;;;;;5111714;28;20509;-57
2022/04/30 03:03:05;;;;;;;9.35;5.40;;;7.60;85.40;;;;;;5111735;28;20046;-55
2022/04/30 03:05:32;;;;;;;12.13;5.55;;;7.70;84.90;;;;;;5112059;28;20137;-56
2022/04/30 03:08:00;;;;;;;8.75;6.00;;;7.70;85.20;;;;;;5111932;28;20051;-55
2022/04/30 03:10:26;;;;;;;9.57;5.50;;;7.70;84.60;;;;;;5111616;28;20035;-48
2022/04/30 03:12:52;;;;;;;9.70;5.22;;;7.80;84.30;;;;;;5097964;28;20032;-51
2022/04/30 03:15:20;;;;;;;10.73;6.07;;;7.80;84.60;;;;;;5111796;28;20031;-53
2022/04/30 03:23:15;;;;;;;11.25;5.72;;;7.90;83.90;;;;;;5111483;28;20096;-53
2022/04/30 03:25:40;;;;;;;7.38;4.80;;;7.90;83.60;;;;;;5111536;28;20550;-51
2022/04/30 03:28:06;;;;;;;8.23;5.30;;;7.90;83.30;;;;;;5093113;28;20110;-45
2022/04/30 03:30:32;;;;;;;9.45;5.10;;;7.90;83.30;;;;;;5111339;28;20063;-56
2022/04/30 03:32:57;;;;;;;9.93;5.57;;;8.00;82.90;;;;;;5111504;28;20386;-55
2022/04/30 03:35:23;;;;;;;9.80;5.05;;;8.00;82.50;;;;;;5111290;28;20042;-59
2022/04/30 03:37:49;;;;;;;13.10;5.55;;;8.10;82.10;;;;;;5111397;28;20030;-54
2022/04/30 03:40:15;;;;;;;9.98;5.03;;;8.10;82.30;;;;;;5111040;28;20403;-51
2022/04/30 03:42:41;;;;;;;9.63;5.30;;;8.10;81.70;;;;;;5111018;28;20051;-53
2022/04/30 03:45:07;;;;;;;10.65;5.43;;;8.20;81.40;;;;;;5111201;28;20098;-55
2022/04/30 03:47:32;;;;;;;8.60;5.25;;;8.10;81.50;;;;;;5110788;28;20034;-59
2022/04/30 03:49:59;;;;;;;10.73;5.22;;;8.20;81.70;;;;;;5110513;28;20035;-54
2022/04/30 03:52:25;;;;;;;9.10;5.13;;;8.20;81.40;;;;;;5095756;28;20028;-57
2022/04/30 03:54:50;;;;;;;11.48;5.57;;;8.20;81.20;;;;;;5110931;28;20039;-56
2022/04/30 03:57:17;;;;;;;10.40;5.65;;;8.20;81.10;;;;;;5110791;28;20051;-50
2022/04/30 03:59:43;;;;;;;12.70;5.97;;;8.20;81.30;;;;;;5110877;28;20097;-58
2022/04/30 04:02:08;;;;;;;7.95;5.53;;;8.20;81.50;;;;;;5110765;28;20374;-39
2022/04/30 04:04:34;;;;;;;12.95;6.05;;;8.20;81.00;;;;;;5110971;28;20114;-37
2022/04/30 04:07:00;;;;;;;9.70;5.65;;;8.30;81.80;;;;;;5110953;28;20110;-37
2022/04/30 04:09:25;;;;;;;8.68;5.00;;;8.30;80.90;;;;;;5110606;28;20043;-44
2022/04/30 04:11:51;;;;;;;9.60;5.10;;;8.30;82.00;;;;;;5110542;28;20106;-44
2022/04/30 04:19:45;;;;;;;9.15;5.43;;;8.20;81.00;;;;;;5111164;28;20027;-37
2022/04/30 04:22:11;;;;;;;10.77;4.97;;;8.20;81.20;;;;;;5092477;28;20024;-37
2022/04/30 04:27:20;;;;;;;9.77;5.40;;;8.20;81.10;;;;;;5110881;28;20529;-37
2022/04/30 04:29:47;;;;;;;12.23;5.50;;;8.20;81.00;;;;;;5110843;28;20023;-50
2022/04/30 04:32:13;;;;;;;12.55;5.25;;;8.20;80.90;;;;;;5110531;28;20038;-58
2022/04/30 04:34:39;;;;;;;8.95;4.53;;;8.10;80.90;;;;;;5110774;28;20047;-50
2022/04/30 04:37:04;;;;;;;7.47;4.50;;;8.10;81.20;;;;;;5110808;28;20063;-57
2022/04/30 04:39:30;;;;;;;8.68;4.75;;;8.10;81.10;;;;;;5110686;28;20031;-52
2022/04/30 04:41:56;;;;;;;8.00;4.60;;;8.00;81.30;;;;;;5110400;28;20036;-50
2022/04/30 04:44:21;;;;;;;8.25;4.57;;;8.00;80.90;;;;;;5110595;28;20108;-56
2022/04/30 04:46:48;;;;;;;7.10;4.63;;;7.90;81.00;;;;;;5110648;28;20122;-56
2022/04/30 04:49:14;;;;;;;11.38;4.95;;;7.90;81.50;;;;;;5110408;28;20047;-42
2022/04/30 04:51:39;;;;;;;11.60;4.85;;;7.90;82.00;;;;;;5110409;28;20039;-57
2022/04/30 04:54:05;;;;;;;8.60;4.40;;;7.90;83.40;;;;;;5110726;28;20024;-52
2022/04/30 04:56:31;;;;;;;8.77;4.50;;;7.90;82.50;;;;;;5110411;28;20084;-57
2022/04/30 04:58:57;;;;;;;9.43;4.82;;;7.90;82.60;;;;;;5111771;28;20023;-44
2022/04/30 05:01:23;;;;;;;7.65;4.60;;;7.90;82.90;;;;;;5095919;28;20115;-56
2022/04/30 05:03:48;;;;;;;8.88;4.68;;;7.90;82.40;;;;;;5114357;28;20161;-56
2022/04/30 05:06:14;;;;;;;6.75;3.97;;;7.90;82.30;;;;;;5114451;28;20084;-56
2022/04/30 05:08:40;;;;;;;10.65;4.85;;;7.90;81.60;;;;;;5114639;28;20020;-53
2022/04/30 05:11:06;;;;;;;10.23;4.63;;;7.90;81.20;;;;;;5114291;28;20492;-58
2022/04/30 05:13:31;;;;;;;8.05;4.78;;;7.90;81.00;;;;;;5114233;28;20110;-54
2022/04/30 05:15:57;;;;;;;7.10;4.28;;;8.00;81.90;;;;;;5114336;28;20053;-53
2022/04/30 05:18:23;;;;;;;10.18;4.45;;;8.00;82.30;;;;;;5114251;28;20502;-57
2022/04/30 05:20:48;;;;;;;7.70;4.80;;;8.00;81.70;;;;;;5113989;28;20066;-52
2022/04/30 05:23:14;;;;;;;6.55;4.47;;;8.10;82.40;;;;;;5114224;28;20157;-57
2022/04/30 05:25:42;;;;;;;6.35;4.32;;;8.10;81.50;;;;;;5114081;28;20026;-56
2022/04/30 05:28:11;;;;;;;8.88;4.60;;;8.20;81.30;;;;;;5113917;28;20099;-37
2022/04/30 05:30:38;;;;;;;12.35;4.88;;;8.10;80.40;;;;;;5113700;28;20080;-41
2022/04/30 05:33:03;;;;;;;7.60;4.63;;;8.20;80.30;;;;;;5113665;28;20027;-36
2022/04/30 05:35:29;;;;;;;9.27;4.80;;;8.30;80.80;;;;;;5113573;28;20355;-39
2022/04/30 05:37:55;;;;;;;7.60;4.55;;;8.40;80.30;;;;;;5113738;28;20027;-45
2022/04/30 05:40:21;;;;;;;9.07;4.35;;;8.40;80.40;;;;;;5113610;28;20028;-55
2022/04/30 05:42:47;;;;;;;9.02;4.35;;;8.50;81.00;;;;;;5113459;28;20049;-55
2022/04/30 05:45:12;;;;;;;8.52;4.07;;;8.50;80.20;;;;;;5113648;28;20023;-57
2022/04/30 05:47:38;;;;;;;7.43;4.53;;;8.50;80.30;;;;;;5113456;28;20466;-55
2022/04/30 05:50:05;;;;;;;8.98;4.15;;;8.50;79.30;;;;;;5113623;28;20034;-54
2022/04/30 05:52:33;;;;;;;9.32;4.35;;;8.50;79.00;;;;;;5113229;28;20024;-55
2022/04/30 05:55:01;;;;;;;7.00;4.18;;;8.60;79.40;;;;;;5113393;28;20370;-60
2022/04/30 05:57:28;;;;;;;7.22;4.22;;;8.70;79.20;;;;;;5113212;28;20534;-51
2022/04/30 05:59:55;;;;;;;9.13;4.13;;;8.80;78.70;;;;;;5113363;28;20108;-59
2022/04/30 06:02:20;;;;;;;6.07;4.38;;;8.90;79.10;;;;;;5109088;28;20123;-54
2022/04/30 06:04:46;;;;;;;7.18;4.05;;;9.10;79.30;;;;;;5102391;28;20103;-57
2022/04/30 06:07:12;;;;;;;6.50;4.07;;;9.40;77.20;;;;;;5099824;28;20067;-51
2022/04/30 06:09:38;;;;;;;6.72;3.58;;;9.60;76.20;;;;;;5092535;28;20026;-50
2022/04/30 06:12:05;;;;;;;12.13;4.43;;;9.80;75.70;;;;;;5099497;28;20044;-59
2022/04/30 06:14:31;;;;;;;7.15;3.80;;;10.00;74.20;;;;;;5109518;28;20073;-59
2022/04/30 06:16:58;;;;;;;6.30;3.45;;;10.80;72.50;;;;;;5106530;28;20039;-49
2022/04/30 06:19:24;;;;;;;6.50;3.70;;;12.10;71.00;;;;;;5104553;28;20059;-57
2022/04/30 06:21:50;;;;;;;7.50;3.70;;;12.70;61.80;;;;;;5106074;28;20027;-57
2022/04/30 06:24:16;;;;;;;8.30;3.85;;;12.90;62.10;;;;;;5109579;28;20054;-55
2022/04/30 06:26:42;;;;;;;7.88;3.55;;;12.60;61.70;;;;;;5101024;28;20056;-45
2022/04/30 06:29:09;;;;;;;7.65;3.80;;;12.60;63.40;;;;;;5094108;28;20027;-39
2022/04/30 06:31:35;;;;;;;10.27;4.93;;;12.20;64.30;;;;;;5105674;28;20063;-36
2022/04/30 06:34:01;;;;;;;7.22;3.85;;;12.00;65.10;;;;;;5092087;28;20060;-44
2022/04/30 06:36:26;;;;;;;7.68;4.50;;;11.80;66.90;;;;;;5105318;28;20049;-55
2022/04/30 06:38:52;;;;;;;7.82;4.55;;;11.50;67.70;;;;;;5110525;28;20027;-46
2022/04/30 06:41:19;;;;;;;7.90;4.45;;;11.30;67.80;;;;;;5092057;28;20490;-53
2022/04/30 06:43:45;;;;;;;7.78;4.57;;;11.10;68.20;;;;;;5092189;28;20034;-55
2022/04/30 06:46:11;;;;;;;8.10;4.38;;;11.00;70.30;;;;;;5100781;28;20027;-46
2022/04/30 06:48:37;;;;;;;9.30;4.88;;;11.10;69.60;;;;;;5095814;28;20032;-52
2022/04/30 06:51:03;;;;;;;8.68;4.07;;;11.20;68.40;;;;;;5093245;28;20081;-49
2022/04/30 06:59:09;;;;;;;8.05;4.88;;;10.90;68.70;;;;;;5111190;28;20034;-58
2022/04/30 07:02:13;;;;;;;10.05;4.68;;;11.00;70.40;;;;;;5110776;28;20092;-51
2022/04/30 07:04:31;;;;;;;9.02;4.70;;;11.00;68.90;;;;;;5087624;28;20025;-40
2022/04/30 07:06:57;;;;;;;7.05;4.32;;;11.20;70.50;;;;;;5092489;28;20039;-51
2022/04/30 07:09:22;;;;;;;8.00;4.43;;;11.60;68.10;;;;;;5093953;28;20024;-54
2022/04/30 07:11:48;;;;;;;7.20;4.10;;;12.10;68.00;;;;;;5111875;28;20113;-52
2022/04/30 07:14:14;;;;;;;9.75;4.43;;;12.30;64.40;;;;;;5109011;28;20419;-53
2022/04/30 07:16:39;;;;;;;11.13;4.45;;;12.00;66.10;;;;;;5110430;28;20080;-52
2022/04/30 07:19:05;;;;;;;7.85;3.85;;;11.70;65.80;;;;;;5112107;28;20016;-56
2022/04/30 07:21:32;;;;;;;8.48;4.60;;;11.70;68.80;;;;;;5110306;28;20081;-48
2022/04/30 07:23:58;;;;;;;6.22;4.18;;;11.60;67.70;;;;;;5110289;28;20028;-58
2022/04/30 07:26:24;;;;;;;10.77;4.90;;;11.40;68.90;;;;;;5110046;28;20085;-56
2022/04/30 07:28:51;;;;;;;10.38;4.55;;;11.50;69.80;;;;;;5110517;28;20020;-58
2022/04/30 07:31:16;;;;;;;9.43;4.75;;;11.40;68.30;;;;;;5109641;28;20111;-58
2022/04/30 07:33:42;;;;;;;8.38;4.93;;;11.30;68.50;;;;;;5109767;28;20115;-59
2022/04/30 07:36:08;;;;;;;7.18;4.47;;;11.40;68.40;;;;;;5110185;28;20023;-52
2022/04/30 07:38:34;;;;;;;7.78;4.38;;;11.50;69.20;;;;;;5110172;28;20035;-57
2022/04/30 07:40:59;;;;;;;8.30;4.80;;;11.70;68.80;;;;;;5109465;28;20023;-59
2022/04/30 07:43:25;;;;;;;7.07;4.68;;;11.80;67.70;;;;;;5109353;28;20030;-58
2022/04/30 07:45:50;;;;;;;10.80;4.28;;;12.00;68.10;;;;;;5091463;28;20036;-47
2022/04/30 07:48:16;;;;;;;9.98;5.13;;;12.10;67.00;;;;;;5109663;28;20019;-55
2022/04/30 07:50:44;;;;;;;7.35;4.18;;;12.10;67.40;;;;;;5109610;28;20172;-50
2022/04/30 07:53:13;;;;;;;8.07;4.80;;;12.40;67.00;;;;;;5109767;28;20362;-49
2022/04/30 07:55:39;;;;;;;7.60;4.15;;;12.80;65.80;;;;;;5111089;28;20115;-51
2022/04/30 07:58:05;;;;;;;8.32;4.45;;;13.10;63.20;;;;;;5111420;28;20405;-50
2022/04/30 08:00:31;;;;;;;11.10;4.30;;;13.40;64.10;;;;;;5111062;28;20537;-56
2022/04/30 08:02:58;;;;;;;7.90;4.53;;;14.00;64.20;;;;;;5111254;28;20075;-54
2022/04/30 08:05:25;;;;;;;7.07;5.20;;;14.80;60.20;;;;;;5111357;28;20486;-59
2022/04/30 08:07:51;;;;;;;7.55;4.40;;;15.20;58.40;;;;;;5111281;28;20030;-54
2022/04/30 08:10:17;;;;;;;8.70;4.68;;;15.10;57.10;;;;;;5111263;28;20030;-52
2022/04/30 08:12:43;;;;;;;9.35;4.60;;;14.50;58.00;;;;;;5111256;28;20098;-55
2022/04/30 08:15:09;;;;;;;6.93;4.50;;;14.20;59.20;;;;;;5111196;28;20126;-53
2022/04/30 08:17:36;;;;;;;12.73;5.78;;;14.10;61.90;;;;;;5110626;28;20118;-52
2022/04/30 08:20:03;;;;;;;10.02;5.10;;;14.00;59.70;;;;;;5110886;28;20028;-58
2022/04/30 08:22:28;;;;;;;7.72;4.55;;;14.30;62.40;;;;;;5111089;28;20031;-54
2022/04/30 08:24:54;;;;;;;8.88;4.97;;;14.60;60.00;;;;;;5110988;28;20363;-49
2022/04/30 08:27:21;;;;;;;7.10;4.70;;;14.30;57.40;;;;;;5110958;28;20027;-58
2022/04/30 08:29:46;;;;;;;8.30;5.20;;;13.90;60.20;;;;;;5111038;28;20020;-54
2022/04/30 08:32:14;;;;;;;8.85;4.68;;;13.80;60.40;;;;;;5110476;28;20027;-55
2022/04/30 08:34:40;;;;;;;9.38;4.68;;;13.80;61.70;;;;;;5114902;28;20606;-53
2022/04/30 08:37:06;;;;;;;7.55;4.93;;;13.80;62.70;;;;;;5114971;28;20221;-58
2022/04/30 08:39:31;;;;;;;10.60;5.03;;;13.70;61.70;;;;;;5115080;28;20030;-56
2022/04/30 08:41:58;;;;;;;11.18;4.65;;;13.90;62.80;;;;;;5114716;28;20493;-55
2022/04/30 08:44:24;;;;;;;8.95;4.55;;;13.90;63.10;;;;;;5114858;28;20520;-53
2022/04/30 08:46:50;;;;;;;6.53;4.30;;;13.90;64.10;;;;;;5114495;28;20031;-54
2022/04/30 08:49:16;;;;;;;7.18;4.90;;;13.90;62.80;;;;;;5114618;28;20034;-53
2022/04/30 08:51:41;;;;;;;7.80;4.80;;;13.90;61.80;;;;;;5114712;28;20047;-48
2022/04/30 08:54:08;;;;;;;8.10;4.55;;;13.80;63.50;;;;;;5114493;28;20102;-60
2022/04/30 08:56:36;;;;;;;7.82;4.35;;;13.70;60.50;;;;;;5114302;28;20040;-47
2022/04/30 08:59:06;;;;;;;9.20;4.60;;;13.90;61.90;;;;;;5114534;28;20031;-59
2022/04/30 09:01:47;;;;;;;7.88;4.40;;;14.50;61.20;;;;;;5114402;28;20114;-57
2022/04/30 09:04:13;;;;;;;8.43;4.30;;;15.30;57.80;;;;;;5114572;28;20023;-58
2022/04/30 09:06:50;;;;;;;7.63;4.30;;;16.30;55.60;;;;;;5114090;28;20359;-53
2022/04/30 09:09:25;;;;;;;7.93;3.88;;;17.30;50.70;;;;;;5114301;28;20119;-52
2022/04/30 09:11:53;;;;;;;7.53;4.13;;;18.40;51.10;;;;;;5114004;28;20039;-60
2022/04/30 09:14:28;;;;;;;7.07;3.90;;;19.20;46.30;;;;;;5095832;28;20028;-60
2022/04/30 09:17:05;;;;;;;8.02;4.28;;;19.00;45.50;;;;;;5113761;28;20031;-41
2022/04/30 09:19:44;;;;;;;6.90;3.95;;;18.40;47.30;;;;;;5113907;28;20517;-55
2022/04/30 09:22:10;;;;;;;8.13;4.05;;;18.00;48.20;;;;;;5097922;28;20028;-56
2022/04/30 09:24:49;;;;;;;5.50;4.00;;;18.30;51.10;;;;;;5114090;28;20477;-58
2022/04/30 09:27:16;;;;;;;10.00;4.07;;;17.90;48.70;;;;;;5113922;28;20028;-57
2022/04/30 09:29:42;;;;;;;6.95;4.00;;;17.50;50.50;;;;;;5114427;28;20024;-59
2022/04/30 09:32:08;;;;;;;9.45;4.45;;;17.10;51.90;;;;;;5113752;28;20029;-52
2022/04/30 09:37:41;;;;;;;8.63;4.07;;;17.00;53.30;;;;;;5093322;28;20109;-57
2022/04/30 09:40:13;;;;;;;11.50;4.47;;;18.40;54.10;;;;;;5093313;28;20506;-53
2022/04/30 09:42:43;;;;;;;6.35;3.60;;;20.00;49.60;;;;;;5093380;28;20039;-58
2022/04/30 09:45:29;;;;;;;7.35;4.10;;;21.00;44.50;;;;;;5094984;28;20020;-61
2022/04/30 09:47:55;;;;;;;5.70;3.53;;;22.00;41.80;;;;;;5113782;28;20023;-54
2022/04/30 09:55:54;;;;;;;5.65;3.38;;;23.20;40.80;;;;;;5113359;28;20477;-58
2022/04/30 09:58:27;;;;;;;5.97;3.67;;;24.10;38.30;;;;;;5094882;28;20020;-59
2022/04/30 10:00:55;;;;;;;6.50;3.83;;;22.60;38.90;;;;;;5113128;28;20048;-58
2022/04/30 10:03:29;;;;;;;6.57;3.60;;;23.10;39.30;;;;;;5113458;28;20378;-59
2022/04/30 10:06:05;;;;;;;6.50;3.70;;;22.40;36.90;;;;;;5113120;28;20038;-57
2022/04/30 10:08:39;;;;;;;7.97;3.72;;;21.70;40.80;;;;;;5094913;28;20041;-59
2022/04/30 10:11:32;;;;;;;6.20;3.53;;;21.60;41.00;;;;;;5113245;28;20047;-52
2022/04/30 10:14:09;;;;;;;8.55;4.00;;;21.30;43.40;;;;;;5113132;28;20035;-54
2022/04/30 10:16:36;;;;;;;6.65;3.80;;;20.80;42.00;;;;;;5112726;28;20057;-51
2022/04/30 10:19:16;;;;;;;6.57;3.90;;;20.40;45.30;;;;;;5113132;28;20019;-60
2022/04/30 10:21:42;;;;;;;9.27;4.20;;;19.80;45.10;;;;;;5113023;28;20394;-52
2022/04/30 10:24:12;;;;;;;8.63;4.30;;;19.50;43.00;;;;;;5113053;28;20038;-44
2022/04/30 10:26:39;;;;;;;8.98;4.60;;;18.80;46.80;;;;;;5112273;28;20040;-52
2022/04/30 10:29:12;;;;;;;7.05;4.07;;;18.50;48.80;;;;;;5092258;28;20024;-50
2022/04/30 10:31:46;;;;;;;7.25;4.15;;;19.30;47.90;;;;;;5092623;28;20036;-60
2022/04/30 10:34:13;;;;;;;7.20;3.72;;;20.30;47.50;;;;;;5092461;28;20020;-52
2022/04/30 10:36:39;;;;;;;8.85;4.80;;;21.40;43.50;;;;;;5107076;28;20110;-46
2022/04/30 10:39:12;;;;;;;7.68;3.85;;;22.00;39.50;;;;;;5110343;28;20110;-43
2022/04/30 10:41:42;;;;;;;9.88;3.88;;;22.50;40.70;;;;;;5099719;28;20547;-43
2022/04/30 10:44:08;;;;;;;7.32;3.55;;;22.80;42.20;;;;;;5103095;28;20028;-47
2022/04/30 10:46:39;;;;;;;9.95;3.95;;;23.20;38.60;;;;;;5102482;28;20036;-59
2022/04/30 10:49:06;;;;;;;6.93;3.72;;;21.80;37.80;;;;;;5112358;28;20020;-55
2022/04/30 10:51:42;;;;;;;9.35;4.75;;;22.50;40.90;;;;;;5111869;28;20042;-50
2022/04/30 10:54:18;;;;;;;7.65;4.28;;;22.70;37.50;;;;;;5106633;28;20023;-38
2022/04/30 10:56:45;;;;;;;7.07;4.28;;;22.40;38.90;;;;;;5103972;28;20089;-41
2022/04/30 10:59:21;;;;;;;8.13;4.20;;;22.50;38.20;;;;;;5103302;28;20032;-47
2022/04/30 11:01:51;;;;;;;8.65;4.30;;;22.10;39.40;;;;;;5090872;28;20194;-52
2022/04/30 11:04:18;;;;;;;8.77;4.15;;;22.50;40.00;;;;;;5109104;28;20019;-50
2022/04/30 11:06:45;;;;;;;5.57;3.83;;;22.90;39.40;;;;;;5107667;28;20035;-58
2022/04/30 11:09:11;;;;;;;6.35;4.20;;;23.20;39.70;;;;;;5110206;28;20024;-53
2022/04/30 11:11:37;;;;;;;5.95;4.05;;;23.30;34.80;;;;;;5111523;28;20117;-55
2022/04/30 11:14:05;;;;;;;6.43;3.70;;;22.80;35.50;;;;;;5111315;28;20015;-48
2022/04/30 11:16:35;;;;;;;6.18;3.60;;;22.60;38.00;;;;;;5111007;28;20036;-52
2022/04/30 11:19:08;;;;;;;6.25;3.70;;;22.70;38.30;;;;;;5111351;28;20027;-49
2022/04/30 11:21:35;;;;;;;7.72;3.88;;;22.80;37.70;;;;;;5111794;28;20043;-46
2022/04/30 11:24:02;;;;;;;6.53;4.00;;;22.70;38.10;;;;;;5106505;28;20466;-59
2022/04/30 11:26:30;;;;;;;5.47;3.30;;;22.10;37.70;;;;;;5091348;28;20031;-45
2022/04/30 11:28:56;;;;;;;8.80;4.22;;;21.60;38.80;;;;;;5091235;28;20031;-56
2022/04/30 11:31:22;;;;;;;7.80;4.47;;;20.80;39.90;;;;;;5101818;28;20526;-50
2022/04/30 11:33:48;;;;;;;7.63;3.95;;;20.30;42.50;;;;;;5110720;28;20031;-50
2022/04/30 11:36:14;;;;;;;7.10;4.40;;;20.50;45.90;;;;;;5107003;28;20028;-60
2022/04/30 11:38:48;;;;;;;7.88;4.10;;;21.10;43.40;;;;;;5087894;28;20096;-61
2022/04/30 11:41:14;;;;;;;5.75;3.67;;;21.60;41.70;;;;;;5111385;28;20030;-55
2022/04/30 11:43:40;;;;;;;7.88;3.97;;;21.80;41.60;;;;;;5105347;28;20023;-50
2022/04/30 11:46:05;;;;;;;8.20;4.10;;;21.80;43.20;;;;;;5093337;28;20059;-56
2022/04/30 11:48:39;;;;;;;8.85;4.18;;;21.40;40.70;;;;;;5076265;28;20032;-53
2022/04/30 11:51:06;;;;;;;5.90;3.85;;;21.00;40.40;;;;;;5098903;28;20478;-53
2022/04/30 11:53:32;;;;;;;10.90;4.00;;;21.30;43.20;;;;;;5102710;28;20539;-50
2022/04/30 11:55:58;;;;;;;7.38;3.90;;;22.00;44.20;;;;;;5094155;28;20034;-59
2022/04/30 11:58:24;;;;;;;7.10;4.03;;;22.10;37.80;;;;;;5100321;28;20025;-54
2022/04/30 12:00:52;;;;;;;9.00;3.88;;;21.80;40.60;;;;;;5103222;28;20073;-48
2022/04/30 12:03:28;;;;;;;6.57;4.18;;;21.60;39.90;;;;;;5107786;28;20477;-52
2022/04/30 12:05:54;;;;;;;5.43;3.88;;;20.80;40.60;;;;;;5102260;28;20080;-50
2022/04/30 12:08:19;;;;;;;8.50;4.20;;;20.40;43.90;;;;;;5105774;28;20024;-60
2022/04/30 12:10:54;;;;;;;7.32;3.88;;;20.60;44.00;;;;;;5100634;28;20024;-57
2022/04/30 12:13:24;;;;;;;6.15;3.90;;;20.50;44.20;;;;;;5105021;28;20058;-59
2022/04/30 12:16:01;;;;;;;;;;;20.50;42.10;;;;;;5104445;28;20039;-54
2022/04/30 12:27:19;;;;;;;5.88;4.18;;;20.80;43.50;;;;;;5100474;28;20039;-52
2022/04/30 12:29:44;;;;;;;10.50;4.13;;;20.90;45.60;;;;;;5089693;28;20028;-56
2022/04/30 12:32:10;;;;;;;6.40;3.65;;;20.90;43.30;;;;;;5100461;28;20486;-49
2022/04/30 12:34:38;;;;;;;6.75;3.85;;;20.90;38.80;;;;;;5107663;28;20637;-59
2022/04/30 12:37:04;;;;;;;6.07;3.63;;;20.60;42.40;;;;;;5102098;28;20028;-43
2022/04/30 12:39:30;;;;;;;6.80;3.05;;;20.40;41.00;;;;;;5109491;28;20388;-37
2022/04/30 12:41:59;;;;;;;6.70;3.50;;;20.50;41.20;;;;;;5110816;28;20115;-46
2022/04/30 12:44:26;;;;;;;7.88;4.00;;;20.60;38.00;;;;;;5110464;28;20019;-46
2022/04/30 12:46:52;;;;;;;5.43;3.33;;;20.80;39.10;;;;;;5110479;28;20039;-39
2022/04/30 12:49:18;;;;;;;6.10;3.30;;;21.20;40.80;;;;;;5108776;28;20372;-58
2022/04/30 12:51:46;;;;;;;7.80;4.07;;;21.40;40.40;;;;;;5108885;28;20102;-53
2022/04/30 12:54:13;;;;;;;6.35;3.80;;;21.60;41.10;;;;;;5107871;28;20111;-54
2022/04/30 12:56:41;;;;;;;6.20;3.63;;;21.80;39.00;;;;;;5106360;28;20075;-53
2022/04/30 12:59:07;;;;;;;5.85;3.40;;;21.70;39.30;;;;;;5106734;28;20051;-56
2022/04/30 13:01:40;;;;;;;8.73;3.45;;;21.60;37.80;;;;;;5107188;28;20044;-51
2022/04/30 13:04:07;;;;;;;6.00;3.40;;;21.10;38.00;;;;;;5108566;28;20101;-37
2022/04/30 13:06:34;;;;;;;9.02;3.75;;;20.70;38.50;;;;;;5108823;28;20062;-37
2022/04/30 13:14:28;;;;;;;8.43;3.55;;;19.90;36.90;;;;;;5110579;28;20042;-56
2022/04/30 13:16:54;;;;;;;5.88;3.20;;;19.80;41.70;;;;;;5110546;28;20027;-54
2022/04/30 13:19:20;;;;;;;5.10;3.33;;;19.90;42.00;;;;;;5110754;28;20023;-60
2022/04/30 13:21:46;;;;;;;4.65;2.97;;;19.80;41.90;;;;;;5114150;28;20049;-59
2022/04/30 13:24:16;;;;;;;5.82;3.67;;;19.80;42.30;;;;;;5113939;28;20028;-50
2022/04/30 13:26:45;;;;;;;6.65;3.60;;;19.80;40.20;;;;;;5113722;28;20036;-48
2022/04/30 13:29:12;;;;;;;11.40;3.78;;;19.60;39.10;;;;;;5114037;28;20111;-53
2022/04/30 13:31:38;;;;;;;5.30;3.15;;;19.60;42.90;;;;;;5113972;28;20568;-58
2022/04/30 13:34:05;;;;;;;6.85;3.45;;;19.50;40.80;;;;;;5113591;28;20114;-52
2022/04/30 13:36:41;;;;;;;4.68;3.47;;;19.70;43.90;;;;;;5113494;28;20035;-53
2022/04/30 13:39:07;;;;;;;4.93;3.40;;;19.70;42.70;;;;;;5113875;28;20036;-57
2022/04/30 13:41:33;;;;;;;5.85;3.45;;;19.80;44.10;;;;;;5114030;28;20389;-60
2022/04/30 13:43:58;;;;;;;7.40;3.38;;;19.80;40.70;;;;;;5113604;28;20019;-57